.
WxDataArchive / Data Records for 2012-01-27
2012-01-26 January 2012 2012-01-28

Data Records for Friday, 27 January 2012

Time	Temp	Chill	HIndex	Humid	Dewpt	 Wind 	HiWind	WindDir	Rain 	Barom 
-----	----	-----	------	-----	-----	------	------	-------	-----	----- 
00:00	33.2	33.2	33.2	96	32.2	0	3	22	0.00	29.566 
00:05	33.2	33.2	33.2	96	32.2	0	1	22	0.00	29.566 
00:10	33.2	33.2	33.2	96	32.2	0	1	22	0.00	29.566 
00:15	33.2	33.2	33.2	96	32.2	0	2	22	0.00	29.566 
00:20	33.2	33.2	33.2	96	32.2	0	1	22	0.00	29.566 
00:25	33.2	33.2	33.2	96	32.2	1	2	292	0.00	29.566 
00:30	33.2	33.2	33.2	96	32.2	0	2	292	0.00	29.565 
00:35	33.2	33.2	33.2	96	32.2	0	2	292	0.00	29.565 
00:40	33.2	33.2	33.2	96	32.2	1	3	292	0.00	29.565 
00:45	33.2	33.2	33.2	96	32.2	0	2	338	0.00	29.566 
00:50	33.4	33.4	33.4	96	32.4	0	2	338	0.00	29.566 
00:55	33.4	33.4	33.4	96	32.4	1	3	338	0.00	29.566 
01:00	33.4	33.4	33.4	96	32.4	1	2	270	0.00	29.565 
01:05	33.4	33.4	33.4	96	32.4	1	3	270	0.00	29.565 
01:10	33.4	33.4	33.4	96	32.4	1	2	270	0.00	29.565 
01:15	33.2	33.2	33.2	96	32.2	1	4	270	0.00	29.562 
01:20	33.2	33.2	33.2	96	32.2	1	3	270	0.00	29.562 
01:25	33.1	33.1	33.1	96	32.1	1	3	270	0.01	29.562 
01:30	33.1	33.1	33.1	96	32.1	1	4	338	0.00	29.553 
01:35	33.1	33.1	33.1	96	32.1	1	2	338	0.00	29.553 
01:40	33.1	33.1	33.1	96	32.1	1	3	338	0.00	29.553 
01:45	33.1	33.1	33.1	96	32.1	1	2	338	0.00	29.549 
01:50	33.1	33.1	33.1	96	32.1	1	3	270	0.00	29.549 
01:55	33.1	33.1	33.1	96	32.1	1	3	270	0.01	29.549 
02:00	33.1	33.1	33.1	96	32.1	1	4	270	0.00	29.557 
02:05	33.1	33.1	33.1	96	32.1	1	3	292	0.00	29.557 
02:10	33.1	33.1	33.1	96	32.1	1	3	292	0.00	29.557 
02:15	33.1	33.1	33.1	96	32.1	2	5	292	0.00	29.563 
02:20	33.1	33.1	33.1	96	32.1	1	3	270	0.00	29.563 
02:25	33.1	33.1	33.1	96	32.1	1	4	338	0.00	29.563 
02:30	33.1	33.1	33.1	96	32.1	1	3	270	0.00	29.565 
02:35	33.1	33.1	33.1	96	32.1	1	4	270	0.00	29.565 
02:40	33.1	33.1	33.1	96	32.1	2	4	248	0.00	29.565 
02:45	33.1	33.1	33.1	96	32.1	1	4	248	0.00	29.578 
02:50	33.1	33.1	33.1	96	32.1	2	3	315	0.00	29.578 
02:55	33.2	33.2	33.2	96	32.2	2	3	248	0.00	29.578 
03:00	33.2	33.2	33.2	96	32.2	2	3	248	0.00	29.586 
03:05	33.1	33.1	33.1	96	32.1	2	4	315	0.00	29.586 
03:10	33.1	33.1	33.1	96	32.1	1	3	315	0.00	29.586 
03:15	33.1	33.1	33.1	96	32.1	1	3	248	0.00	29.594 
03:20	33.2	33.2	33.2	96	32.2	1	4	338	0.00	29.594 
03:25	33.2	33.2	33.2	96	32.2	1	3	248	0.00	29.594 
03:30	33.4	33.4	33.4	96	32.4	1	2	338	0.00	29.596 
03:35	33.4	33.4	33.4	96	32.4	1	3	270	0.00	29.596 
03:40	33.5	33.5	33.5	96	32.5	2	4	270	0.00	29.596 
03:45	33.7	33.7	33.7	96	32.7	1	3	292	0.00	29.595 
03:50	33.7	33.7	33.7	96	32.7	2	4	315	0.00	29.595 
03:55	33.8	33.8	33.8	96	32.8	2	3	248	0.00	29.595 
04:00	33.8	33.8	33.8	96	32.8	2	4	270	0.00	29.605 
04:05	34.0	34.0	34.0	96	33.0	3	7	270	0.00	29.605 
04:10	34.1	34.1	34.1	96	33.1	1	5	315	0.00	29.605 
04:15	34.1	34.1	34.1	96	33.1	2	5	270	0.00	29.610 
04:20	34.3	34.3	34.3	96	33.3	2	5	270	0.00	29.610 
04:25	34.3	34.3	34.3	96	33.3	1	3	292	0.00	29.610 
04:30	34.3	34.3	34.3	96	33.3	2	4	292	0.00	29.617 
04:35	34.3	34.3	34.3	96	33.3	2	3	292	0.00	29.617 
04:40	34.3	34.3	34.3	96	33.3	2	4	292	0.01	29.617 
04:45	34.3	34.3	34.3	96	33.3	2	5	225	0.00	29.627 
04:50	34.3	34.3	34.3	96	33.3	3	6	248	0.00	29.627 
04:55	34.3	34.3	34.3	96	33.3	2	4	292	0.00	29.627 
05:00	34.3	34.3	34.3	96	33.3	2	5	338	0.00	29.628 
05:05	34.3	34.3	34.3	96	33.3	2	4	270	0.00	29.628 
05:10	34.4	34.4	34.4	96	33.4	1	3	270	0.00	29.628 
05:15	34.4	34.4	34.4	96	33.4	2	5	248	0.00	29.635 
05:20	34.6	34.6	34.6	96	33.6	2	4	315	0.00	29.635 
05:25	34.6	34.6	34.6	96	33.6	2	5	270	0.00	29.635 
05:30	34.7	34.7	34.7	96	33.7	2	6	338	0.00	29.642 
05:35	34.7	34.7	34.7	96	33.7	2	5	338	0.00	29.642 
05:40	34.9	34.9	34.9	96	33.9	2	4	248	0.00	29.642 
05:45	34.9	34.9	34.9	96	33.9	3	5	270	0.00	29.650 
05:50	34.9	34.9	34.9	96	33.9	2	4	270	0.00	29.650 
05:55	35.0	35.0	35.0	96	34.0	2	5	270	0.00	29.650 
06:00	35.0	35.0	35.0	96	34.0	2	4	270	0.00	29.654 
06:05	35.0	35.0	35.0	96	34.0	2	5	292	0.00	29.654 
06:10	35.0	35.0	35.0	96	34.0	2	4	292	0.00	29.654 
06:15	35.0	35.0	35.0	96	34.0	1	2	270	0.00	29.663 
06:20	35.0	35.0	35.0	96	34.0	2	4	270	0.00	29.663 
06:25	35.0	35.0	35.0	96	34.0	2	4	270	0.00	29.663 
06:30	35.0	35.0	35.0	96	34.0	2	3	248	0.00	29.673 
06:35	35.0	35.0	35.0	96	34.0	2	5	292	0.00	29.673 
06:40	35.0	35.0	35.0	96	34.0	2	4	292	0.00	29.673 
06:45	35.0	35.0	35.0	96	34.0	2	4	270	0.00	29.686 
06:50	35.0	35.0	35.0	96	34.0	1	3	270	0.00	29.686 
06:55	35.0	35.0	35.0	96	34.0	3	5	270	0.00	29.686 
07:00	35.0	35.0	35.0	96	34.0	3	6	270	0.00	29.696 
07:05	35.0	35.0	35.0	96	34.0	3	9	270	0.00	29.696 
07:10	34.9	34.9	34.9	96	33.9	3	5	270	0.00	29.696 
07:15	34.9	34.9	34.9	96	33.9	2	5	270	0.00	29.705 
07:20	34.9	34.9	34.9	96	33.9	2	6	270	0.00	29.705 
07:25	34.9	34.9	34.9	96	33.9	2	6	270	0.00	29.705 
07:30	34.9	34.9	34.9	96	33.9	2	6	270	0.00	29.722 
07:35	34.9	34.9	34.9	96	33.9	3	6	270	0.00	29.722 
07:40	34.9	34.9	34.9	96	33.9	3	5	270	0.00	29.722 
07:45	34.9	34.9	34.9	96	33.9	3	7	248	0.00	29.734 
07:50	34.9	34.9	34.9	96	33.9	2	5	315	0.00	29.734 
07:55	34.7	34.7	34.7	96	33.7	2	5	315	0.00	29.734 
08:00	34.7	34.7	34.7	95	33.4	3	9	270	0.01	29.751 
08:05	34.7	34.7	34.7	95	33.4	2	4	292	0.00	29.751 
08:10	34.7	34.7	34.7	95	33.4	2	5	315	0.00	29.751 
08:15	34.9	34.9	34.9	95	33.6	2	5	338	0.00	29.765 
08:20	34.9	34.9	34.9	95	33.6	3	5	270	0.00	29.765 
08:25	34.9	34.9	34.9	94	33.4	2	5	315	0.00	29.765 
08:30	35.0	35.0	35.0	94	33.5	2	4	315	0.00	29.767 
08:35	35.0	35.0	35.0	94	33.5	1	4	315	0.00	29.767 
08:40	35.0	35.0	35.0	93	33.2	1	3	315	0.00	29.767 
08:45	35.0	35.0	35.0	93	33.2	1	3	338	0.00	29.769 
08:50	35.0	35.0	35.0	93	33.2	1	3	270	0.00	29.769 
08:55	35.0	35.0	35.0	93	33.2	1	2	270	0.00	29.769 
09:00	35.0	35.0	35.0	92	32.9	1	3	270	0.00	29.782 
09:05	35.0	35.0	35.0	92	32.9	2	3	270	0.00	29.782 
09:10	35.0	35.0	35.0	92	32.9	1	3	270	0.00	29.782 
09:15	35.0	35.0	35.0	92	32.9	2	3	270	0.00	29.793 
09:20	35.0	35.0	35.0	92	32.9	2	4	270	0.00	29.793 
09:25	35.0	35.0	35.0	92	32.9	2	4	270	0.00	29.793 
09:30	35.0	35.0	35.0	92	32.9	1	3	270	0.00	29.796 
09:35	35.0	35.0	35.0	92	32.9	1	3	270	0.00	29.796 
09:40	35.0	35.0	35.0	92	32.9	1	3	270	0.00	29.796 
09:45	35.0	35.0	35.0	92	32.9	1	3	270	0.00	29.800 
09:50	35.0	35.0	35.0	92	32.9	1	3	270	0.00	29.800 
09:55	35.0	35.0	35.0	92	32.9	2	3	270	0.00	29.800 
10:00	35.0	35.0	35.0	93	33.2	1	3	270	0.00	29.814 
10:05	35.0	35.0	35.0	92	32.9	2	4	248	0.00	29.814 
10:10	35.2	35.2	35.2	92	33.1	1	2	248	0.00	29.814 
10:15	35.2	35.2	35.2	92	33.1	1	3	248	0.00	29.827 
10:20	35.3	35.3	35.3	92	33.2	2	3	248	0.00	29.827 
10:25	35.5	35.5	35.5	92	33.4	2	4	248	0.00	29.827 
10:30	35.5	35.5	35.5	92	33.4	2	4	270	0.00	29.842 
10:35	35.6	35.6	35.6	92	33.5	2	4	270	0.00	29.842 
10:40	35.8	35.8	35.8	92	33.7	2	3	270	0.00	29.842 
10:45	35.9	35.9	35.9	91	33.5	2	5	248	0.00	29.850 
10:50	36.0	36.0	36.0	91	33.6	2	4	270	0.00	29.850 
10:55	36.3	36.3	36.3	91	33.9	1	3	248	0.00	29.850 
11:00	36.6	36.6	36.6	90	33.9	1	3	248	0.00	29.854 
11:05	36.8	36.8	36.8	90	34.1	2	5	248	0.00	29.854 
11:10	36.9	36.9	36.9	89	34.0	2	5	248	0.00	29.854 
11:15	37.0	37.0	37.0	88	33.8	2	4	292	0.00	29.859 
11:20	37.2	37.2	37.2	88	34.0	2	4	248	0.00	29.859 
11:25	37.3	37.3	37.3	87	33.8	2	4	248	0.00	29.859 
11:30	37.6	37.6	37.6	87	34.1	1	5	248	0.00	29.862 
11:35	37.9	37.9	37.9	87	34.4	1	3	248	0.00	29.862 
11:40	38.3	38.3	38.3	85	34.2	2	4	270	0.00	29.862 
11:45	38.2	38.2	38.2	82	33.2	2	5	248	0.01	29.867 
11:50	38.2	38.2	38.2	82	33.2	1	4	315	0.00	29.867 
11:55	38.0	38.0	38.0	81	32.7	2	4	292	0.00	29.867 
12:00	37.9	37.9	37.9	80	32.3	1	4	270	0.00	29.868 
12:05	37.8	37.8	37.8	80	32.2	2	6	270	0.00	29.868 
12:10	37.5	37.5	37.5	80	31.9	3	5	270	0.00	29.868 
12:15	37.3	37.3	37.3	80	31.7	2	5	270	0.00	29.874 
12:20	37.3	37.3	37.3	80	31.7	2	4	270	0.00	29.874 
12:25	37.5	37.5	37.5	80	31.9	1	3	270	0.00	29.874 
12:30	37.5	37.5	37.5	80	31.9	1	5	270	0.00	29.876 
12:35	37.3	37.3	37.3	79	31.4	2	7	315	0.00	29.876 
12:40	37.5	37.5	37.5	78	31.3	3	5	248	0.00	29.876 
12:45	37.6	37.6	37.6	78	31.4	1	4	270	0.00	29.880 
12:50	37.8	37.8	37.8	78	31.6	2	4	248	0.00	29.880 
12:55	38.0	38.0	38.0	76	31.1	1	3	270	0.00	29.880 
13:00	37.9	37.9	37.9	71	29.4	3	5	270	0.00	29.881 
13:05	37.9	37.9	37.9	69	28.7	2	6	315	0.00	29.881 
13:10	37.9	37.9	37.9	69	28.7	1	4	315	0.00	29.881 
13:15	38.2	38.2	38.2	71	29.6	2	6	315	0.00	29.879 
13:20	38.8	38.8	38.8	73	30.9	1	4	270	0.00	29.879 
13:25	38.9	38.9	38.9	69	29.6	2	7	315	0.00	29.879 
13:30	38.8	38.8	38.8	66	28.4	3	6	270	0.00	29.871 
13:35	39.2	39.2	39.2	65	28.4	3	6	270	0.00	29.871 
13:40	39.8	39.8	39.8	64	28.6	1	3	292	0.00	29.871 
13:45	40.1	40.1	40.1	63	28.5	3	6	338	0.00	29.869 
13:50	40.1	40.1	40.1	61	27.7	2	4	292	0.00	29.869 
13:55	39.6	39.6	39.6	59	26.5	2	4	292	0.00	29.869 
14:00	39.9	39.9	39.9	63	28.3	2	4	338	0.00	29.872 
14:05	40.2	40.2	40.2	61	27.8	3	5	270	0.00	29.872 
14:10	40.3	40.3	40.3	59	27.1	2	5	0	0.00	29.872 
14:15	40.5	40.5	40.5	59	27.3	2	4	315	0.00	29.865 
14:20	40.2	40.2	40.2	59	27.0	3	6	338	0.00	29.865 
14:25	40.3	40.3	40.3	60	27.5	2	5	270	0.00	29.865 
14:30	40.5	40.5	40.5	59	27.3	2	6	292	0.00	29.871 
14:35	40.5	40.5	40.5	59	27.3	3	5	270	0.00	29.871 
14:40	40.5	40.5	40.5	58	26.9	2	4	338	0.00	29.871 
14:45	40.8	40.8	40.8	61	28.4	2	5	270	0.00	29.875 
14:50	40.8	40.8	40.8	59	27.6	3	5	248	0.00	29.875 
14:55	40.9	40.9	40.9	58	27.3	3	6	270	0.00	29.875 
15:00	40.9	40.9	40.9	59	27.7	2	5	292	0.00	29.890 
15:05	40.8	40.8	40.8	58	27.2	2	5	270	0.00	29.890 
15:10	40.8	40.8	40.8	58	27.2	2	5	338	0.00	29.890 
15:15	40.9	40.9	40.9	59	27.7	2	3	292	0.00	29.902 
15:20	41.1	41.1	41.1	59	27.9	1	4	248	0.00	29.902 
15:25	41.1	41.1	41.1	59	27.9	2	6	248	0.00	29.902 
15:30	41.2	41.2	41.2	58	27.6	2	4	248	0.00	29.904 
15:35	41.3	41.3	41.3	57	27.2	2	4	270	0.00	29.904 
15:40	41.2	41.2	41.2	57	27.1	3	5	248	0.00	29.904 
15:45	41.2	41.2	41.2	57	27.1	2	4	270	0.00	29.911 
15:50	41.2	41.2	41.2	56	26.7	1	3	248	0.00	29.911 
15:55	40.9	40.9	40.9	56	26.4	2	4	270	0.00	29.911 
16:00	40.8	40.8	40.8	58	27.2	2	5	292	0.00	29.905 
16:05	40.8	40.8	40.8	58	27.2	2	4	248	0.00	29.905 
16:10	40.6	40.6	40.6	57	26.6	2	4	292	0.00	29.905 
16:15	40.3	40.3	40.3	55	25.4	2	4	270	0.00	29.915 
16:20	40.3	40.3	40.3	56	25.9	2	4	270	0.00	29.915 
16:25	40.3	40.3	40.3	57	26.3	2	4	292	0.00	29.915 
16:30	40.3	40.3	40.3	58	26.7	1	4	292	0.00	29.920 
16:35	40.3	40.3	40.3	57	26.3	2	4	270	0.00	29.920 
16:40	40.2	40.2	40.2	56	25.8	1	4	270	0.00	29.920 
16:45	40.1	40.1	40.1	56	25.7	1	3	315	0.00	29.923 
16:50	39.9	39.9	39.9	57	25.9	1	3	315	0.00	29.923 
16:55	39.9	39.9	39.9	58	26.3	1	3	225	0.00	29.923 
17:00	39.9	39.9	39.9	57	25.9	2	4	248	0.00	29.931 
17:05	39.6	39.6	39.6	57	25.6	1	4	248	0.00	29.931 
17:10	39.6	39.6	39.6	58	26.1	0	3	248	0.00	29.931 
17:15	39.5	39.5	39.5	58	26.0	0	1	248	0.00	29.936 
17:20	39.3	39.3	39.3	59	26.2	0	2	248	0.00	29.936 
17:25	39.1	39.1	39.1	59	26.0	0	1	248	0.00	29.936 
17:30	38.8	38.8	38.8	60	26.1	0	1	248	0.00	29.946 
17:35	38.6	38.6	38.6	60	25.9	1	2	248	0.00	29.946 
17:40	38.3	38.3	38.3	61	26.0	0	2	248	0.00	29.946 
17:45	38.0	38.0	38.0	61	25.8	0	1	248	0.00	29.953 
17:50	37.8	37.8	37.8	62	26.0	0	2	248	0.00	29.953 
17:55	37.5	37.5	37.5	62	25.7	0	1	248	0.00	29.953 
18:00	37.2	37.2	37.2	63	25.8	0	0	---	0.00	29.962 
18:05	36.9	36.9	36.9	64	25.9	0	1	248	0.00	29.962 
18:10	36.8	36.8	36.8	64	25.8	0	1	248	0.00	29.962 
18:15	36.6	36.6	36.6	65	26.0	0	1	248	0.00	29.970 
18:20	36.3	36.3	36.3	66	26.0	0	1	248	0.00	29.970 
18:25	36.2	36.2	36.2	66	26.0	0	2	248	0.00	29.970 
18:30	36.0	36.0	36.0	67	26.1	0	1	248	0.00	29.975 
18:35	35.8	35.8	35.8	68	26.3	0	1	248	0.00	29.975 
18:40	35.6	35.6	35.6	68	26.1	0	1	248	0.00	29.975 
18:45	35.5	35.5	35.5	69	26.4	0	1	248	0.00	29.982 
18:50	35.3	35.3	35.3	69	26.2	0	1	248	0.00	29.982 
18:55	35.0	35.0	35.0	69	25.9	0	1	248	0.00	29.982 
19:00	34.7	34.7	34.7	70	25.9	0	0	---	0.00	29.987 
19:05	34.4	34.4	34.4	70	25.6	0	0	---	0.00	29.987 
19:10	34.1	34.1	34.1	71	25.7	0	0	---	0.00	29.987 
19:15	34.0	34.0	34.0	72	25.9	0	0	---	0.00	29.990 
19:20	33.8	33.8	33.8	73	26.1	0	1	248	0.00	29.990 
19:25	33.8	33.8	33.8	74	26.4	0	0	---	0.00	29.990 
19:30	34.0	34.0	34.0	74	26.6	0	1	248	0.00	30.000 
19:35	34.1	34.1	34.1	75	27.0	0	0	---	0.00	30.000 
19:40	34.1	34.1	34.1	75	27.0	0	1	248	0.00	30.000 
19:45	34.1	34.1	34.1	75	27.0	0	1	248	0.00	30.003 
19:50	34.1	34.1	34.1	75	27.0	0	1	248	0.00	30.003 
19:55	34.1	34.1	34.1	76	27.3	0	2	248	0.00	30.003 
20:00	34.3	34.3	34.3	76	27.5	0	0	---	0.00	30.005 
20:05	34.3	34.3	34.3	75	27.2	0	1	248	0.00	30.005 
20:10	34.3	34.3	34.3	75	27.2	0	1	248	0.00	30.005 
20:15	34.4	34.4	34.4	75	27.3	0	1	248	0.00	30.006 
20:20	34.4	34.4	34.4	75	27.3	0	2	248	0.00	30.006 
20:25	34.4	34.4	34.4	74	27.0	0	2	248	0.00	30.006 
20:30	34.6	34.6	34.6	75	27.5	1	3	248	0.00	30.005 
20:35	34.6	34.6	34.6	74	27.2	1	4	248	0.00	30.005 
20:40	34.7	34.7	34.7	74	27.3	1	2	248	0.00	30.005 
20:45	34.7	34.7	34.7	74	27.3	1	3	248	0.00	30.007 
20:50	34.7	34.7	34.7	74	27.3	1	2	248	0.00	30.007 
20:55	34.7	34.7	34.7	75	27.6	1	3	248	0.00	30.007 
21:00	34.7	34.7	34.7	75	27.6	1	3	248	0.00	30.003 
21:05	34.7	34.7	34.7	75	27.6	1	3	248	0.00	30.003 
21:10	34.7	34.7	34.7	75	27.6	1	4	248	0.00	30.003 
21:15	34.7	34.7	34.7	75	27.6	1	4	248	0.00	30.002 
21:20	34.6	34.6	34.6	75	27.5	0	2	248	0.00	30.002 
21:25	34.6	34.6	34.6	75	27.5	0	2	248	0.00	30.002 
21:30	34.4	34.4	34.4	76	27.6	0	2	248	0.00	30.004 
21:35	34.3	34.3	34.3	76	27.5	0	1	248	0.00	30.004 
21:40	34.1	34.1	34.1	77	27.7	0	2	248	0.00	30.004 
21:45	34.1	34.1	34.1	77	27.7	0	2	248	0.00	29.998 
21:50	33.8	33.8	33.8	77	27.4	0	2	248	0.00	29.998 
21:55	33.5	33.5	33.5	77	27.1	0	1	248	0.00	29.998 
22:00	33.4	33.4	33.4	78	27.3	0	2	248	0.00	29.995 
22:05	33.2	33.2	33.2	79	27.4	0	4	248	0.00	29.995 
22:10	33.2	33.2	33.2	79	27.4	0	3	248	0.00	29.995 
22:15	33.1	33.1	33.1	80	27.6	0	2	248	0.00	29.985 
22:20	32.9	32.9	32.9	80	27.4	0	1	248	0.00	29.985 
22:25	32.8	32.8	32.8	81	27.6	0	2	248	0.00	29.985 
22:30	32.7	32.7	32.7	81	27.5	0	1	248	0.00	29.983 
22:35	32.5	32.5	32.5	81	27.3	0	1	248	0.00	29.983 
22:40	32.4	32.4	32.4	81	27.2	0	1	248	0.00	29.983 
22:45	32.4	32.4	32.4	82	27.5	0	1	248	0.00	29.978 
22:50	32.2	32.2	32.2	82	27.3	0	1	248	0.00	29.978 
22:55	32.2	32.2	32.2	82	27.3	0	1	248	0.00	29.978 
23:00	32.2	32.2	32.2	82	27.3	0	0	---	0.00	29.975 
23:05	32.1	32.1	32.1	83	27.5	0	1	248	0.00	29.975 
23:10	32.1	32.1	32.1	83	27.5	0	2	248	0.00	29.975 
23:15	32.1	32.1	32.1	83	27.5	0	1	248	0.00	29.974 
23:20	32.1	32.1	32.1	84	27.8	0	2	248	0.00	29.974 
23:25	32.1	32.1	32.1	84	27.8	0	2	248	0.00	29.974 
23:30	32.2	32.2	32.2	84	27.9	0	1	248	0.00	29.969 
23:35	32.4	32.4	32.4	84	28.1	0	1	248	0.00	29.969 
23:40	32.5	32.5	32.5	84	28.2	0	1	248	0.00	29.969 
23:45	32.7	32.7	32.7	84	28.4	0	1	248	0.00	29.965 
23:50	32.8	32.8	32.8	84	28.5	0	2	248	0.00	29.965 
23:55	32.9	32.9	32.9	84	28.6	0	3	248	0.00	29.965 

CoCoRaHS
IN-AL-39
A2 Web Hosting
Creative Commons License
GoDaddy
search engine by freefind advanced

loaded 2018-11-12 19:57:31 • last modified 2010-11-18 10:43:29
Privacy PolicyDisclaimer
• wx.awcolley.com is powered by PmWiki v.2002016 •
• all content (unless otherwise noted) © 2018 A W Colley